This is the latest recevied weather packets stored in our database for station/object W2DRT. If no packets are shown the sender has not sent any weather packets the latest 10 day(s).
| Time | Temp. | Humidity | Pressure | Rain* | Wind** | Luminosity | Snow |
|---|---|---|---|---|---|---|---|
| 1777264256 | 6.11° C | 79% | 1024.1 hPa | - | - | - | - |
| 1777263651 | 5.56° C | 79% | 1023.8 hPa | - | - | - | - |
| 1777263050 | 6.11° C | 78% | 1023.8 hPa | - | - | - | - |
| 1777262449 | 6.11° C | 78% | 1023.8 hPa | - | - | - | - |
| 1777261849 | 6.11° C | 78% | 1023.8 hPa | - | - | - | - |
| 1777261249 | 6.11° C | 78% | 1023.8 hPa | - | - | - | - |
| 1777260644 | 6.67° C | 78% | 1023.8 hPa | - | - | - | - |
| 1777260041 | 6.67° C | 78% | 1023.4 hPa | - | - | - | - |
| 1777259441 | 6.67° C | 77% | 1023.4 hPa | - | - | - | - |
| 1777258841 | 6.67° C | 77% | 1023.8 hPa | - | - | - | - |
| 1777257641 | 7.22° C | 76% | 1023.8 hPa | - | - | - | - |
| 1777257035 | 7.22° C | 75% | 1023.8 hPa | - | - | - | - |
| 1777255832 | 7.78° C | 73% | 1023.8 hPa | - | - | - | - |
| 1777234171 | 15.56° C | 51% | 1020.1 hPa | - | - | - | - |
| 1777231760 | 15.56° C | 54% | 1020.1 hPa | - | - | - | - |
| 1777229954 | 14.44° C | 56% | 1020.7 hPa | - | - | - | - |
| 1777228753 | 13.89° C | 59% | 1020.7 hPa | - | - | - | - |
| 1777223939 | 12.22° C | 65% | 1020.7 hPa | - | - | - | - |
| 1777222134 | 10.56° C | 72% | 1021.1 hPa | - | - | - | - |
| 1777220932 | 9.44° C | 74% | 1021.1 hPa | - | - | - | - |
| 1777219727 | 9.44° C | 75% | 1021.1 hPa | - | - | - | - |
| 1777217922 | 8.33° C | 78% | 1021.1 hPa | - | - | - | - |
| 1777217319 | 7.78° C | 79% | 1021.1 hPa | - | - | - | - |
| 1777216718 | 7.22° C | 80% | 1021.1 hPa | - | - | - | - |
| 1777215516 | 7.78° C | 83% | 1021.1 hPa | - | - | - | - |
* Rain since midnight (hover to see other rain measurements)
** Current wind speed in m/s (hover to see current wind gust speed)